createdAt,value
2022-08-16T00:01:11.501Z,100689.81
2022-08-16T00:03:38.685Z,100692.00
2022-08-16T00:06:07.699Z,100696.13
2022-08-16T00:08:37.491Z,100694.16
2022-08-16T00:11:15.220Z,100699.78
2022-08-16T00:13:53.713Z,100697.81
2022-08-16T00:16:57.834Z,100692.00
2022-08-16T00:19:14.999Z,100709.72
2022-08-16T00:21:42.799Z,100704.69
2022-08-16T00:24:12.117Z,100704.63
2022-08-16T00:26:45.153Z,100710.66
2022-08-16T00:29:15.401Z,100706.41
2022-08-16T00:31:59.018Z,100707.06
2022-08-16T00:34:43.839Z,100711.19
2022-08-16T00:37:16.733Z,100709.56
2022-08-16T00:39:44.914Z,100711.34
2022-08-16T00:42:11.742Z,100715.38
2022-08-16T00:44:43.214Z,100719.06
2022-08-16T00:47:16.274Z,100714.03
2022-08-16T00:49:44.814Z,100714.31
2022-08-16T00:52:30.348Z,100717.25
2022-08-16T00:54:59.467Z,100713.75
2022-08-16T00:57:27.454Z,100721.69
2022-08-16T01:00:14.420Z,100715.56
2022-08-16T01:02:47.467Z,100722.72
2022-08-16T01:05:15.983Z,100721.53
2022-08-16T01:07:51.089Z,100719.16
2022-08-16T01:10:31.986Z,100715.31
2022-08-16T01:13:05.613Z,100711.06
2022-08-16T01:15:35.286Z,100721.25
2022-08-16T01:18:05.820Z,100717.31
2022-08-16T01:20:37.941Z,100711.94
2022-08-16T01:24:01.553Z,100716.38
2022-08-16T01:26:34.907Z,100720.06
2022-08-16T01:29:09.823Z,100720.00
2022-08-16T01:31:37.704Z,100717.56
2022-08-16T01:34:22.748Z,100726.22
2022-08-16T01:37:07.044Z,100726.53
2022-08-16T01:39:36.585Z,100719.31
2022-08-16T01:42:12.128Z,100721.06
2022-08-16T01:44:40.617Z,100717.56
2022-08-16T01:47:08.808Z,100723.56
2022-08-16T01:49:43.692Z,100724.59
2022-08-16T01:52:29.770Z,100716.56
2022-08-16T01:54:57.435Z,100719.22
2022-08-16T01:57:24.715Z,100716.13
2022-08-16T01:59:54.615Z,100710.84
2022-08-16T02:02:27.277Z,100708.44
2022-08-16T02:04:55.996Z,100709.16
2022-08-16T02:07:24.009Z,100711.38
2022-08-16T02:09:58.914Z,100715.38
2022-08-16T02:12:49.590Z,100711.19
2022-08-16T02:15:16.878Z,100712.31
2022-08-16T02:17:43.476Z,100711.09
2022-08-16T02:20:12.137Z,100715.19
2022-08-16T02:22:39.614Z,100720.38
2022-08-16T02:25:10.904Z,100713.13
2022-08-16T02:27:40.811Z,100718.31
2022-08-16T02:30:36.581Z,100715.25
2022-08-16T02:32:59.854Z,100719.00
2022-08-16T02:35:27.120Z,100718.56
2022-08-16T02:37:56.120Z,100721.91
2022-08-16T02:40:24.104Z,100717.69
2022-08-16T02:42:53.335Z,100719.91
2022-08-16T02:45:24.611Z,100720.59
2022-08-16T02:48:01.344Z,100715.97
2022-08-16T02:50:53.945Z,100720.06
2022-08-16T02:53:25.609Z,100718.13
2022-08-16T02:55:53.155Z,100712.41
2022-08-16T02:58:24.745Z,100708.53
2022-08-16T03:00:55.979Z,100710.72
2022-08-16T03:03:24.998Z,100712.94
2022-08-16T03:05:52.550Z,100714.06
2022-08-16T03:08:50.513Z,100713.63
2022-08-16T03:11:16.472Z,100706.03
2022-08-16T03:13:47.572Z,100709.75
2022-08-16T03:16:17.990Z,100708.91
2022-08-16T03:19:01.746Z,100709.59
2022-08-16T03:21:29.344Z,100711.03
2022-08-16T03:24:06.264Z,100706.41
2022-08-16T03:26:52.705Z,100703.00
2022-08-16T03:29:19.187Z,100701.78
2022-08-16T03:31:45.643Z,100703.56
2022-08-16T03:34:19.065Z,100703.91
2022-08-16T03:36:47.380Z,100700.03
2022-08-16T03:39:15.040Z,100707.53
2022-08-16T03:41:50.118Z,100693.91
2022-08-16T03:44:43.502Z,100705.16
2022-08-16T03:47:04.901Z,100715.28
2022-08-16T03:49:37.412Z,100710.66
2022-08-16T03:52:04.611Z,100707.56
2022-08-16T03:54:31.167Z,100700.34
2022-08-16T03:56:58.741Z,100705.94
2022-08-16T03:59:29.676Z,100704.75
2022-08-16T04:01:57.879Z,100713.00
2022-08-16T04:04:33.602Z,100723.13
2022-08-16T04:07:02.774Z,100730.28
2022-08-16T04:09:31.106Z,100733.25
2022-08-16T04:12:04.666Z,100730.50
2022-08-16T04:14:46.344Z,100728.97
2022-08-16T04:17:15.412Z,100728.09
2022-08-16T04:19:45.373Z,100729.19
2022-08-16T04:22:12.668Z,100738.66
2022-08-16T04:24:39.435Z,100739.75
2022-08-16T04:27:09.064Z,100733.28
2022-08-16T04:29:43.923Z,100735.16
2022-08-16T04:32:13.866Z,100744.59
2022-08-16T04:34:40.593Z,100742.72
2022-08-16T04:37:07.366Z,100741.31
2022-08-16T04:39:45.965Z,100745.13
2022-08-16T04:42:15.753Z,100746.66
2022-08-16T04:44:54.140Z,100746.34
2022-08-16T04:47:33.104Z,100758.91
2022-08-16T04:50:00.186Z,100761.97
2022-08-16T04:52:35.234Z,100770.34
2022-08-16T04:55:11.804Z,100769.97
2022-08-16T04:57:41.398Z,100767.00
2022-08-16T05:00:31.932Z,100761.41
2022-08-16T05:03:10.660Z,100765.91
2022-08-16T05:05:45.187Z,100764.81
2022-08-16T05:08:29.368Z,100770.97
2022-08-16T05:11:05.262Z,100766.13
2022-08-16T05:13:40.693Z,100777.13
2022-08-16T05:16:11.870Z,100770.94
2022-08-16T05:18:38.582Z,100777.53
2022-08-16T05:21:09.717Z,100774.22
2022-08-16T05:23:37.989Z,100770.59
2022-08-16T05:26:05.519Z,100773.00
2022-08-16T05:28:46.115Z,100773.88
2022-08-16T05:31:12.734Z,100775.94
2022-08-16T05:33:39.211Z,100785.19
2022-08-16T05:36:14.522Z,100782.75
2022-08-16T05:38:41.195Z,100780.72
2022-08-16T05:41:09.480Z,100782.38
2022-08-16T05:43:43.470Z,100787.09
2022-08-16T05:46:28.673Z,100777.38
2022-08-16T05:49:03.802Z,100783.50
2022-08-16T05:51:37.660Z,100777.72
2022-08-16T05:54:06.429Z,100779.22
2022-08-16T05:56:34.275Z,100782.03
2022-08-16T05:59:06.152Z,100779.56
2022-08-16T06:01:38.159Z,100781.88
2022-08-16T06:04:13.605Z,100786.38
2022-08-16T06:06:55.847Z,100783.72
2022-08-16T06:09:25.200Z,100785.19
2022-08-16T06:11:52.103Z,100794.19
2022-08-16T06:14:19.611Z,100797.44
2022-08-16T06:16:50.987Z,100799.22
2022-08-16T06:19:17.970Z,100800.25
2022-08-16T06:21:45.221Z,100798.25
2022-08-16T06:24:54.476Z,100804.88
2022-08-16T06:26:58.562Z,100798.72
2022-08-16T06:29:25.201Z,100812.50
2022-08-16T06:31:51.909Z,100805.25
2022-08-16T06:34:54.206Z,100802.38
2022-08-16T06:37:05.469Z,100806.09
2022-08-16T06:39:34.531Z,100802.94
2022-08-16T06:42:18.276Z,100809.22
2022-08-16T06:44:45.579Z,100803.66
2022-08-16T06:47:13.030Z,100801.22
2022-08-16T06:49:53.052Z,100799.16
2022-08-16T06:52:58.207Z,100798.72
2022-08-16T06:55:13.030Z,100802.75
2022-08-16T06:57:41.173Z,100805.63
2022-08-16T07:00:24.076Z,100809.56
2022-08-16T07:02:53.645Z,100811.66
2022-08-16T07:05:41.261Z,100809.22
2022-08-16T07:08:11.435Z,100809.38
2022-08-16T07:10:38.730Z,100816.00
2022-08-16T07:13:11.691Z,100810.81
2022-08-16T07:15:50.018Z,100816.72
2022-08-16T07:18:20.202Z,100813.84
2022-08-16T07:20:49.157Z,100818.94
2022-08-16T07:23:16.139Z,100824.41
2022-08-16T07:25:43.373Z,100823.38
2022-08-16T07:28:20.886Z,100828.47
2022-08-16T07:30:51.502Z,100824.00
2022-08-16T07:33:21.414Z,100836.69
2022-08-16T07:36:09.668Z,100828.84
2022-08-16T07:38:36.416Z,100822.88
2022-08-16T07:41:09.368Z,100832.13
2022-08-16T07:43:40.591Z,100823.41
2022-08-16T07:46:37.993Z,100840.59
2022-08-16T07:48:56.098Z,100845.31
2022-08-16T07:51:31.766Z,100849.91
2022-08-16T07:54:02.690Z,100855.69
2022-08-16T07:56:37.362Z,100859.50
2022-08-16T07:59:04.700Z,100852.66
2022-08-16T08:01:31.973Z,100863.00
2022-08-16T08:03:58.907Z,100865.69
2022-08-16T08:06:31.007Z,100869.13
2022-08-16T08:08:59.352Z,100874.44
2022-08-16T08:11:28.237Z,100875.22
2022-08-16T08:13:55.780Z,100866.06
2022-08-16T08:16:30.642Z,100875.59
2022-08-16T08:19:00.591Z,100865.25
2022-08-16T08:21:27.848Z,100869.78
2022-08-16T08:24:15.333Z,100880.00
2022-08-16T08:26:42.820Z,100875.03
2022-08-16T08:29:09.549Z,100874.59
2022-08-16T08:31:36.407Z,100876.06
2022-08-16T08:34:05.060Z,100877.06
2022-08-16T08:36:34.241Z,100878.47
2022-08-16T08:39:12.950Z,100884.94
2022-08-16T08:41:42.444Z,100892.09
2022-08-16T08:44:28.620Z,100893.66
2022-08-16T08:47:05.602Z,100896.16
2022-08-16T08:49:46.350Z,100901.09
2022-08-16T08:52:34.274Z,100893.72
2022-08-16T08:55:10.622Z,100896.28
2022-08-16T08:57:39.722Z,100892.59
2022-08-16T09:00:13.749Z,100893.69
2022-08-16T09:02:45.651Z,100897.06
2022-08-16T09:05:22.240Z,100897.22
2022-08-16T09:08:01.350Z,100896.84
2022-08-16T09:10:32.553Z,100892.06
2022-08-16T09:13:00.997Z,100892.91
2022-08-16T09:15:33.171Z,100900.13
2022-08-16T09:18:26.173Z,100906.22
2022-08-16T09:20:59.926Z,100904.75
2022-08-16T09:23:36.541Z,100906.16
2022-08-16T09:26:45.347Z,100919.28
2022-08-16T09:29:14.756Z,100909.19
2022-08-16T09:31:41.327Z,100920.44
2022-08-16T09:34:09.212Z,100917.91
2022-08-16T09:36:37.451Z,100915.75
2022-08-16T09:39:16.199Z,100919.25
2022-08-16T09:41:43.734Z,100920.94
2022-08-16T09:45:11.505Z,100917.31
2022-08-16T09:47:10.392Z,100926.53
2022-08-16T09:49:37.542Z,100928.38
2022-08-16T09:52:09.452Z,100928.47
2022-08-16T09:54:37.512Z,100924.41
2022-08-16T09:57:04.706Z,100925.81
2022-08-16T09:59:31.448Z,100924.50
2022-08-16T10:02:25.946Z,100933.25
2022-08-16T10:04:54.695Z,100938.56
2022-08-16T10:07:21.974Z,100943.25
2022-08-16T10:09:54.405Z,100936.22
2022-08-16T10:12:43.795Z,100934.13
2022-08-16T10:15:17.625Z,100942.91
2022-08-16T10:18:00.014Z,100941.75
2022-08-16T10:20:34.583Z,100940.84
2022-08-16T10:23:07.234Z,100944.41
2022-08-16T10:27:20.323Z,100934.31
2022-08-16T10:28:30.012Z,100933.59
2022-08-16T10:30:59.700Z,100941.66
2022-08-16T10:33:29.754Z,100930.72
2022-08-16T10:36:07.609Z,100934.03
2022-08-16T10:38:37.622Z,100935.38
2022-08-16T10:41:07.052Z,100935.97
2022-08-16T10:43:37.806Z,100930.91
2022-08-16T10:46:39.188Z,100935.47
2022-08-16T10:48:53.424Z,100937.81
2022-08-16T10:51:19.916Z,100936.63
2022-08-16T10:54:00.359Z,100941.34
2022-08-16T10:56:52.498Z,100950.19
2022-08-16T11:07:52.403Z,100959.06
2022-08-16T11:13:57.292Z,100956.88
2022-08-16T11:19:04.176Z,100959.97
2022-08-16T11:21:36.166Z,100975.56
2022-08-16T11:24:04.883Z,100965.09
2022-08-16T11:29:39.257Z,100980.53
2022-08-16T11:32:07.612Z,100975.59
2022-08-16T11:35:05.893Z,100970.66
2022-08-16T11:37:27.462Z,100988.22
2022-08-16T11:40:01.952Z,100982.50
2022-08-16T11:42:29.674Z,100975.88
2022-08-16T11:44:57.479Z,100978.91
2022-08-16T11:47:24.225Z,100980.81
2022-08-16T11:49:51.462Z,100982.69
2022-08-16T11:52:18.003Z,100985.31
2022-08-16T11:54:48.244Z,100983.25
2022-08-16T11:57:23.480Z,100989.03
2022-08-16T11:59:51.326Z,100981.75
2022-08-16T12:02:32.511Z,100987.41
2022-08-16T12:04:59.587Z,100986.56
2022-08-16T12:07:28.210Z,100983.47
2022-08-16T12:09:55.168Z,100987.84
2022-08-16T12:12:23.799Z,100989.56
2022-08-16T12:14:55.867Z,100986.63
2022-08-16T12:17:27.180Z,100985.03
2022-08-16T12:19:53.701Z,100987.19
2022-08-16T12:22:20.360Z,100989.59
2022-08-16T12:24:52.559Z,100986.59
2022-08-16T12:27:23.055Z,100990.66
2022-08-16T12:29:51.458Z,100991.84
2022-08-16T12:32:35.818Z,100992.72
2022-08-16T12:35:07.493Z,100991.44
2022-08-16T12:37:34.896Z,100993.34
2022-08-16T12:40:02.537Z,100998.16
2022-08-16T12:42:34.674Z,101007.69
2022-08-16T12:45:09.882Z,101003.53
2022-08-16T12:48:09.948Z,101002.94
2022-08-16T12:50:41.447Z,101015.34
2022-08-16T12:53:07.955Z,101012.97
2022-08-16T12:55:42.077Z,101013.19
2022-08-16T12:58:13.727Z,101028.81
2022-08-16T13:00:58.426Z,101017.81
2022-08-16T13:03:25.546Z,101024.13
2022-08-16T13:05:55.825Z,101023.50
2022-08-16T13:08:27.518Z,101028.19
2022-08-16T13:10:58.124Z,101034.44
2022-08-16T13:13:25.623Z,101038.03
2022-08-16T13:16:02.080Z,101032.97
2022-08-16T13:18:34.778Z,101024.06
2022-08-16T13:21:07.854Z,101024.66
2022-08-16T13:23:43.488Z,101030.91
2022-08-16T13:26:10.735Z,101023.78
2022-08-16T13:28:37.285Z,101023.34
2022-08-16T13:31:04.248Z,101011.78
2022-08-16T13:33:37.115Z,101009.34
2022-08-16T13:36:17.008Z,101008.06
2022-08-16T13:38:52.778Z,101009.03
2022-08-16T13:41:21.131Z,101008.69
2022-08-16T13:43:57.942Z,101012.19
2022-08-16T13:46:26.396Z,101003.09
2022-08-16T13:48:53.013Z,101005.50
2022-08-16T13:51:23.890Z,101011.13
2022-08-16T13:53:59.174Z,100999.34
2022-08-16T13:56:37.297Z,101004.75
2022-08-16T13:59:19.230Z,101004.72
2022-08-16T14:01:47.025Z,101006.59
2022-08-16T14:04:27.232Z,100999.41
2022-08-16T14:06:56.408Z,101002.66
2022-08-16T14:09:23.271Z,101005.63
2022-08-16T14:11:53.680Z,101011.13
2022-08-16T14:14:21.631Z,101014.19
2022-08-16T14:16:56.200Z,101016.56
2022-08-16T14:19:22.874Z,101018.69
2022-08-16T14:22:14.810Z,101013.34
2022-08-16T14:24:36.835Z,101021.28
2022-08-16T14:27:04.758Z,101025.44
2022-08-16T14:29:35.114Z,101016.56
2022-08-16T14:32:06.833Z,101025.38
2022-08-16T14:34:33.350Z,101026.47
2022-08-16T14:37:00.484Z,101027.38
2022-08-16T14:39:27.210Z,101024.34
2022-08-16T14:41:55.877Z,101032.16
2022-08-16T14:44:23.488Z,101034.34
2022-08-16T14:46:49.976Z,101037.16
2022-08-16T14:49:19.308Z,101035.03
2022-08-16T14:51:46.351Z,101037.50
2022-08-16T14:54:15.158Z,101034.06
2022-08-16T14:56:43.337Z,101029.63
2022-08-16T14:59:29.911Z,101022.44
2022-08-16T15:01:59.512Z,101026.66
2022-08-16T15:04:39.286Z,101020.94
2022-08-16T15:07:09.326Z,101027.47
2022-08-16T15:09:44.799Z,101027.81
2022-08-16T15:12:26.982Z,101034.00
2022-08-16T15:14:57.848Z,101025.22
2022-08-16T15:17:27.600Z,101018.72
2022-08-16T15:20:01.219Z,101022.88
2022-08-16T15:22:33.524Z,101027.34
2022-08-16T15:25:05.049Z,101035.38
2022-08-16T15:27:35.937Z,101043.66
2022-08-16T15:30:44.709Z,101034.13
2022-08-16T15:32:59.942Z,101038.47
2022-08-16T15:35:26.643Z,101036.66
2022-08-16T15:37:56.632Z,101031.00
2022-08-16T15:40:32.159Z,101035.38
2022-08-16T15:43:02.471Z,101037.91
2022-08-16T15:45:47.761Z,101037.44
2022-08-16T15:48:28.642Z,101036.88
2022-08-16T15:50:58.963Z,101036.19
2022-08-16T15:53:27.313Z,101039.00
2022-08-16T15:55:55.424Z,101033.91
2022-08-16T15:58:35.535Z,101029.59
2022-08-16T16:01:07.109Z,101039.78
2022-08-16T16:03:34.544Z,101037.19
2022-08-16T16:06:02.730Z,101039.44
2022-08-16T16:08:30.958Z,101039.06
2022-08-16T16:11:00.652Z,101041.34
2022-08-16T16:13:31.013Z,101042.91
2022-08-16T16:16:00.415Z,101034.56
2022-08-16T16:18:29.803Z,101048.38
2022-08-16T16:21:00.691Z,101042.22
2022-08-16T16:23:30.971Z,101049.91
2022-08-16T16:25:59.060Z,101040.31
2022-08-16T16:29:05.228Z,101055.34
2022-08-16T16:31:17.610Z,101051.84
2022-08-16T16:33:47.838Z,101045.22
2022-08-16T16:36:19.623Z,101049.59
2022-08-16T16:38:47.608Z,101052.69
2022-08-16T16:41:16.879Z,101049.53
2022-08-16T16:43:44.388Z,101048.31
2022-08-16T16:46:40.339Z,101051.66
2022-08-16T16:49:04.087Z,101049.53
2022-08-16T16:51:31.396Z,101055.75
2022-08-16T16:53:59.737Z,101050.41
2022-08-16T16:56:31.236Z,101055.34
2022-08-16T16:59:08.877Z,101060.06
2022-08-16T17:02:00.460Z,101051.97
2022-08-16T17:04:32.028Z,101048.06
2022-08-16T17:07:02.897Z,101050.09
2022-08-16T17:09:30.153Z,101050.59
2022-08-16T17:11:58.265Z,101052.09
2022-08-16T17:14:32.206Z,101054.53
2022-08-16T17:17:03.988Z,101061.25
2022-08-16T17:19:31.769Z,101049.06
2022-08-16T17:21:59.532Z,101049.91
2022-08-16T17:24:26.356Z,101043.06
2022-08-16T17:27:06.343Z,101040.38
2022-08-16T17:29:32.851Z,101048.44
2022-08-16T17:32:33.264Z,101046.88
2022-08-16T17:37:48.925Z,101042.50
2022-08-16T17:39:27.207Z,101044.69
2022-08-16T17:40:45.838Z,101047.19
2022-08-16T17:43:18.634Z,101044.16
2022-08-16T17:45:46.044Z,101043.41
2022-08-16T17:48:13.657Z,101045.00
2022-08-16T17:50:41.699Z,101042.00
2022-08-16T17:53:10.030Z,101047.41
2022-08-16T17:55:39.089Z,101055.44
2022-08-16T17:58:20.069Z,101055.91
2022-08-16T18:00:52.224Z,101054.81
2022-08-16T18:04:06.865Z,101047.22
2022-08-16T18:06:17.732Z,101049.94
2022-08-16T18:08:46.762Z,101055.72
2022-08-16T18:11:18.194Z,101054.22
2022-08-16T18:13:46.223Z,101059.97
2022-08-16T18:16:15.438Z,101073.41
2022-08-16T18:18:43.038Z,101063.06
2022-08-16T18:21:30.051Z,101068.47
2022-08-16T18:23:56.716Z,101073.47
2022-08-16T18:26:23.229Z,101080.41
2022-08-16T18:28:50.475Z,101081.56
2022-08-16T18:31:17.104Z,101070.44
2022-08-16T18:33:44.180Z,101068.56
2022-08-16T18:36:20.777Z,101070.06
2022-08-16T18:38:48.685Z,101070.06
2022-08-16T18:41:15.293Z,101067.78
2022-08-16T18:44:14.240Z,101067.81
2022-08-16T18:46:28.368Z,101057.88
2022-08-16T18:48:54.828Z,101072.34
2022-08-16T18:51:24.945Z,101079.22
2022-08-16T18:53:52.087Z,101085.38
2022-08-16T18:56:18.541Z,101086.81
2022-08-16T18:58:44.989Z,101085.69
2022-08-16T19:01:11.598Z,101092.94
2022-08-16T19:03:38.134Z,101085.66
2022-08-16T19:06:10.441Z,101090.22
2022-08-16T19:08:38.216Z,101095.53
2022-08-16T19:11:07.477Z,101095.91
2022-08-16T19:13:34.975Z,101096.28
2022-08-16T19:16:03.172Z,101104.28
2022-08-16T19:18:36.586Z,101108.03
2022-08-16T19:21:04.885Z,101108.78
2022-08-16T19:23:34.456Z,101119.41
2022-08-16T19:26:06.031Z,101123.97
2022-08-16T19:28:49.314Z,101120.47
2022-08-16T19:31:29.170Z,101127.31
2022-08-16T19:33:56.871Z,101123.88
2022-08-16T19:36:35.293Z,101133.34
2022-08-16T19:39:11.955Z,101132.16
2022-08-16T19:41:41.999Z,101135.56
2022-08-16T19:44:09.637Z,101130.59
2022-08-16T19:46:37.976Z,101134.78
2022-08-16T19:49:05.424Z,101138.19
2022-08-16T19:51:31.982Z,101153.06
2022-08-16T19:53:58.593Z,101155.28
2022-08-16T19:56:26.690Z,101155.69
2022-08-16T19:59:18.106Z,101164.78
2022-08-16T20:01:42.468Z,101162.50
2022-08-16T20:04:13.532Z,101167.84
2022-08-16T20:06:41.934Z,101170.47
2022-08-16T20:09:08.431Z,101176.91
2022-08-16T20:11:37.171Z,101175.69
2022-08-16T20:14:03.887Z,101178.31
2022-08-16T20:16:30.425Z,101172.19
2022-08-16T20:18:56.936Z,101169.91
2022-08-16T20:21:24.265Z,101172.16
2022-08-16T20:23:50.882Z,101174.78
2022-08-16T20:26:18.817Z,101179.34
2022-08-16T20:28:54.171Z,101179.72
2022-08-16T20:31:23.629Z,101188.84
2022-08-16T20:33:52.084Z,101183.44
2022-08-16T20:36:18.629Z,101179.63
2022-08-16T20:38:47.476Z,101179.94
2022-08-16T20:41:15.293Z,101177.59
2022-08-16T20:43:41.895Z,101179.44
2022-08-16T20:46:08.428Z,101176.78
2022-08-16T20:48:34.911Z,101182.09
2022-08-16T20:51:01.517Z,101171.03
2022-08-16T20:53:28.042Z,101174.44
2022-08-16T20:55:54.650Z,101169.81
2022-08-16T20:58:21.126Z,101184.66
2022-08-16T21:00:47.994Z,101186.16
2022-08-16T21:03:14.733Z,101193.75
2022-08-16T21:05:41.647Z,101195.59
2022-08-16T21:08:27.963Z,101199.78
2022-08-16T21:10:56.407Z,101202.78
2022-08-16T21:13:25.333Z,101192.03
2022-08-16T21:15:52.247Z,101193.84
2022-08-16T21:18:18.733Z,101195.72
2022-08-16T21:21:07.130Z,101197.16
2022-08-16T21:23:33.671Z,101192.19
2022-08-16T21:26:00.411Z,101201.66
2022-08-16T21:28:40.334Z,101202.38
2022-08-16T21:31:16.381Z,101203.09
2022-08-16T21:33:55.078Z,101209.88
2022-08-16T21:36:35.658Z,101204.09
2022-08-16T21:39:05.476Z,101192.25
2022-08-16T21:41:32.105Z,101207.41
2022-08-16T21:43:58.536Z,101202.03
2022-08-16T21:46:25.014Z,101200.47
2022-08-16T21:48:51.503Z,101209.16
2022-08-16T21:51:17.971Z,101199.56
2022-08-16T21:53:44.480Z,101204.13
2022-08-16T21:56:16.900Z,101200.66
2022-08-16T21:58:52.881Z,101194.50
2022-08-16T22:01:23.524Z,101197.88
2022-08-16T22:04:01.561Z,101205.44
2022-08-16T22:06:39.165Z,101206.53
2022-08-16T22:09:07.111Z,101212.53
2022-08-16T22:11:34.116Z,101206.78
2022-08-16T22:14:00.942Z,101213.19
2022-08-16T22:16:30.005Z,101203.22
2022-08-16T22:18:56.639Z,101198.63
2022-08-16T22:21:23.368Z,101196.66
2022-08-16T22:23:57.070Z,101199.25
2022-08-16T22:26:34.579Z,101197.66
2022-08-16T22:29:05.037Z,101203.72
2022-08-16T22:31:32.978Z,101204.81
2022-08-16T22:34:01.826Z,101200.91
2022-08-16T22:36:29.049Z,101199.41
2022-08-16T22:38:58.023Z,101199.31
2022-08-16T22:41:25.386Z,101191.28
2022-08-16T22:43:52.414Z,101199.19
2022-08-16T22:46:19.580Z,101201.34
2022-08-16T22:48:49.935Z,101186.53
2022-08-16T22:51:17.406Z,101189.88
2022-08-16T22:53:43.956Z,101179.97
2022-08-16T22:56:10.679Z,101177.66
2022-08-16T22:58:37.437Z,101184.13
2022-08-16T23:01:06.997Z,101182.50
2022-08-16T23:03:33.719Z,101183.63
2022-08-16T23:06:00.773Z,101190.03
2022-08-16T23:08:35.022Z,101189.63
2022-08-16T23:11:12.076Z,101187.69
2022-08-16T23:13:50.065Z,101192.16
2022-08-16T23:16:32.443Z,101184.44
2022-08-16T23:19:05.431Z,101192.00
2022-08-16T23:21:33.073Z,101183.19
2022-08-16T23:23:59.938Z,101183.91
2022-08-16T23:26:46.653Z,101168.63
2022-08-16T23:29:15.926Z,101164.78
2022-08-16T23:31:49.183Z,101166.25
2022-08-16T23:34:16.011Z,101159.41
2022-08-16T23:36:42.574Z,101163.16
2022-08-16T23:39:09.127Z,101158.56
2022-08-16T23:41:35.672Z,101159.25
2022-08-16T23:44:02.163Z,101166.81
2022-08-16T23:46:49.363Z,101167.84
2022-08-16T23:49:57.593Z,101172.00
2022-08-16T23:52:10.087Z,101171.56
2022-08-16T23:54:36.613Z,101171.16
2022-08-16T23:57:03.327Z,101180.22
2022-08-16T23:59:29.883Z,101171.81
